Time;durP1;ratioP1;P1;durP2;ratioP2;P2;SDS_P1;SDS_P2;PMS_P1;PMS_P2;Temp;Humidity;BMP_temperature;BMP_pressure;BME280_temperature;BME280_humidity;BME280_pressure;Samples;Min_cycle;Max_cycle;Signal;HPM_P1;HPM_P2
2022/03/18 11:53:46;;;;;;;;;;;409.70;921.60;;;;;;6249935;23;19956;-89
2022/03/18 11:58:57;;;;;;;;;;;409.70;921.60;;;;;;6248494;23;19998;-89
2022/03/18 12:10:15;;;;;;;;;;;410.40;870.40;;;;;;6247685;23;19942;-90
2022/03/18 12:12:41;;;;;;;;;;;410.50;870.40;;;;;;6220779;23;20233;-89
2022/03/18 12:15:08;;;;;;;;;;;435.20;870.40;;;;;;6247160;23;19908;-89
2022/03/18 12:17:54;;;;;;;;;;;435.20;896.00;;;;;;6220336;23;19905;-88
2022/03/18 12:20:21;;;;;;;;;;;435.20;870.40;;;;;;6246635;23;19899;-87
2022/03/18 12:22:48;;;;;;;;;;;410.40;870.40;;;;;;6220713;23;19955;-89
2022/03/18 12:25:13;;;;;;;;;;;409.80;870.40;;;;;;6220634;23;19930;-86
2022/03/18 12:27:41;;;;;;;;;;;409.90;896.00;;;;;;6220491;23;19950;-89
2022/03/18 12:30:08;;;;;;;;;;;410.00;896.00;;;;;;6220580;23;19904;-90
2022/03/18 12:32:33;;;;;;;;;;;410.30;870.40;;;;;;6220712;23;19899;-89
2022/03/18 12:35:01;;;;;;;;;;;435.50;844.80;;;;;;6220324;23;19905;-87
2022/03/18 12:37:31;;;;;;;;;;;435.60;870.40;;;;;;6246871;23;20324;-89
2022/03/18 12:39:57;;;;;;;;;;;;;;;;;;6247046;23;19910;-87
2022/03/18 12:42:23;;;;;;;;;;;435.70;870.40;;;;;;6220637;23;19935;-88
2022/03/18 12:44:48;;;;;;;;;;;435.50;896.00;;;;;;6220400;23;19906;-86
2022/03/18 12:47:15;;;;;;;;;;;435.50;870.40;;;;;;6219951;23;19903;-92
2022/03/18 12:49:40;;;;;;;;;;;435.60;870.40;;;;;;6220108;23;19912;-85
2022/03/18 12:52:13;;;;;;;;;;;435.70;844.80;;;;;;6220600;23;20381;-89
2022/03/18 12:54:39;;;;;;;;;;;461.30;844.80;;;;;;6248511;23;19903;-86
2022/03/18 12:57:08;;;;;;;;;;;486.40;819.20;;;;;;6220416;23;19900;-86
2022/03/18 12:59:36;;;;;;;;;;;538.10;742.40;;;;;;6220357;23;20268;-86
2022/03/18 13:02:03;;;;;;;;;;;512.50;768.00;;;;;;6220246;23;19990;-88
2022/03/18 13:04:31;;;;;;;;;;;512.30;742.40;;;;;;6221676;23;20316;-86
2022/03/18 13:06:57;;;;;;;;;;;512.50;768.00;;;;;;6248572;23;19984;-87
2022/03/18 13:09:23;;;;;;;;;;;589.50;716.80;;;;;;6248767;23;19958;-86
2022/03/18 13:11:49;;;;;;;;;;;589.60;716.80;;;;;;6248838;23;19927;-87
2022/03/18 13:14:31;;;;;;;;;;;640.50;640.00;;;;;;6222244;23;19906;-85
2022/03/18 13:16:57;;;;;;;;;;;691.50;563.20;;;;;;6221873;23;19910;-87
2022/03/18 13:19:36;;;;;;;;;;;716.80;588.80;;;;;;6248858;23;19904;-88
2022/03/18 13:22:02;;;;;;;;;;;768.80;512.00;;;;;;6248659;23;20013;-85
2022/03/18 13:24:27;;;;;;;;;;;870.40;512.00;;;;;;6248666;23;20321;-81
2022/03/18 13:26:53;;;;;;;;;;;896.60;435.20;;;;;;6221360;23;19899;-83
2022/03/18 13:32:50;;;;;;;;;;;921.70;435.20;;;;;;6221720;23;19990;-85
2022/03/18 13:34:48;;;;;;;;;;;973.30;384.00;;;;;;6248638;23;19922;-85
2022/03/18 13:37:15;;;;;;;;;;;973.30;384.00;;;;;;6221588;23;20314;-85
2022/03/18 13:39:41;;;;;;;;;;;998.40;384.00;;;;;;6248565;23;19905;-85
2022/03/18 13:42:07;;;;;;;;;;;1024.10;358.40;;;;;;6221779;23;19903;-84
2022/03/18 13:44:46;;;;;;;;;;;1024.10;332.80;;;;;;6221610;23;19899;-83
2022/03/18 13:47:12;;;;;;;;;;;1024.60;332.80;;;;;;6247241;23;19970;-81
2022/03/18 13:49:38;;;;;;;;;;;1024.80;332.80;;;;;;6247376;23;19939;-81
2022/03/18 13:52:04;;;;;;;;;;;999.30;332.80;;;;;;6220394;23;20287;-82
2022/03/18 13:54:40;;;;;;;;;;;999.30;332.80;;;;;;6247798;23;19990;-81
2022/03/18 13:57:05;;;;;;;;;;;998.60;358.40;;;;;;6219832;23;19900;-82
2022/03/18 13:59:31;;;;;;;;;;;998.90;358.40;;;;;;6220347;23;19900;-82
2022/03/18 14:01:57;;;;;;;;;;;999.10;332.80;;;;;;6247754;23;19950;-82
2022/03/18 14:04:22;;;;;;;;;;;973.20;332.80;;;;;;6244345;23;19903;-81
2022/03/18 14:06:55;;;;;;;;;;;947.30;358.40;;;;;;6217999;23;19899;-81
2022/03/18 14:09:21;;;;;;;;;;;896.40;358.40;;;;;;6244911;23;19908;-82
2022/03/18 14:14:31;;;;;;;;;;;819.30;435.20;;;;;;6247081;23;19906;-82
2022/03/18 14:17:16;;;;;;;;;;;716.80;486.40;;;;;;6219721;23;19943;-83
2022/03/18 14:19:41;;;;;;;;;;;640.40;512.00;;;;;;6246962;23;19903;-83
2022/03/18 14:22:07;;;;;;;;;;;588.90;614.40;;;;;;6220372;23;19958;-84
2022/03/18 14:24:32;;;;;;;;;;;563.20;640.00;;;;;;6220457;23;19908;-84
2022/03/18 14:26:58;;;;;;;;;;;537.80;665.60;;;;;;6220340;23;20309;-85
2022/03/18 14:29:31;;;;;;;;;;;512.40;665.60;;;;;;6220100;23;20317;-84
2022/03/18 14:31:57;;;;;;;;;;;487.30;665.60;;;;;;6247611;23;19903;-84
2022/03/18 14:34:23;;;;;;;;;;;486.90;691.20;;;;;;6220589;23;20298;-84
2022/03/18 14:36:48;;;;;;;;;;;486.40;691.20;;;;;;6220500;23;19900;-84
2022/03/18 14:39:14;;;;;;;;;;;461.60;716.80;;;;;;6220401;23;19930;-84
2022/03/18 14:41:39;;;;;;;;;;;461.50;742.40;;;;;;6220097;23;19974;-85
2022/03/18 14:44:05;;;;;;;;;;;461.00;1049.60;;;;;;6220981;23;19899;-84
2022/03/18 14:46:31;;;;;;;;;;;436.00;742.40;;;;;;6219568;23;20225;-85
2022/03/18 14:48:56;;;;;;;;;;;436.00;768.00;;;;;;6219872;23;19922;-86
2022/03/18 14:51:23;;;;;;;;;;;435.80;768.00;;;;;;6220700;23;19911;-85
2022/03/18 14:53:48;;;;;;;;;;;435.50;768.00;;;;;;6220780;23;20234;-84
2022/03/18 14:56:17;;;;;;;;;;;;;;;;;;6220652;23;19900;-87
2022/03/18 14:58:43;;;;;;;;;;;;;;;;;;6220545;23;19900;-88
2022/03/18 15:01:09;;;;;;;;;;;;;;;;;;6220759;23;19904;-87
2022/03/18 15:03:35;;;;;;;;;;;;;;;;;;6220027;23;19904;-87
2022/03/18 15:06:01;;;;;;;;;;;;;;;;;;6220752;23;19899;-86
2022/03/18 15:08:27;;;;;;;;;;;409.90;844.80;;;;;;6220336;23;19918;-85
2022/03/18 15:10:55;;;;;;;;;;;;;;;;;;6220515;23;19982;-86
2022/03/18 15:13:21;;;;;;;;;;;409.60;870.40;;;;;;6247411;23;19930;-88
2022/03/18 15:15:47;;;;;;;;;;;;;;;;;;6220808;23;19907;-87
2022/03/18 15:18:13;;;;;;;;;;;384.50;844.80;;;;;;6247506;23;19958;-85
2022/03/18 15:20:38;;;;;;;;;;;384.20;1152.00;;;;;;6247007;23;20313;-87
2022/03/18 15:23:04;;;;;;;;;;;384.20;870.40;;;;;;6247059;23;19931;-86
2022/03/18 15:25:30;;;;;;;;;;;359.30;1126.40;;;;;;6246620;23;20325;-87
2022/03/18 15:27:56;;;;;;;;;;;359.20;870.40;;;;;;6220053;23;19907;-86
2022/03/18 15:30:22;;;;;;;;;;;359.10;896.00;;;;;;6247484;23;19907;-87
2022/03/18 15:32:48;;;;;;;;;;;358.90;1331.20;;;;;;6220713;23;19908;-85
2022/03/18 15:35:13;;;;;;;;;;;358.80;921.60;;;;;;6220461;23;20228;-85
2022/03/18 15:37:39;;;;;;;;;;;358.50;972.80;;;;;;6220750;23;20332;-86
2022/03/18 15:40:05;;;;;;;;;;;358.40;972.80;;;;;;6220461;23;19899;-87
2022/03/18 18:13:00;;;;;;;;;;;;;;;;;;6223162;22;19924;-78
2022/03/18 18:15:32;;;;;;;;;;;;;;;;;;6178840;23;19901;-78
2022/03/18 18:23:50;;;;;;;;;;;;;;;;;;6126054;23;19920;-81
2022/03/18 18:26:23;;;;;;;;;;;;;;;;;;6077107;23;19904;-78
2022/03/18 19:30:01;;;;;;;;;;;179.20;1510.40;;;;;;6271306;22;19914;-79
2022/03/18 19:32:41;;;;;;;;;;;179.20;1510.40;;;;;;6231109;23;19923;-79
2022/03/18 19:38:48;;;;;;;;;;;154.50;1536.00;;;;;;6275534;22;19907;-79
2022/03/18 19:55:14;;;;;;;;;;;;;;;;;;6275186;22;19942;-81
2022/03/18 20:01:09;;;;;;;;;;;;;;;;;;6253474;23;19900;-82
2022/03/18 20:51:05;;;;;;;;;;;154.10;1612.80;;;;;;6234700;22;19914;-81
